• Join FlightAware (Why Join?)
  • Login
  • US Flag 
04:24AM EDT


 

Airport Tracker/Info


-or-


 

Live Flight TrackerFlight Track Log ✈ UAL4295 ✈ 15-Apr-2013 ✈ KEWR - KMCI

Flight Track Log - Related Links

Times and Time Zones

All times are in EDT time to prevent confusion due to time zone crossing. See the UAL4295 flight status page for this flight to view local times or setup timezone preferences in your user account.

Time Position Orientation Groundspeed Altitude Reporting Facility
EDT Latitude Longitude Course Direction KTS MPH feet Rate Location/Type
07:24PM 40.6333 -74.2000 276° West 208 239 2,400  Level New York TRACON
07:25PM 40.6500 -74.3000 282° West 254 292 4,900 2,400 Climbing New York TRACON
07:26PM 40.7343 -74.5275 277° West  Level FlightAware Approximate
07:26PM 40.6833 -74.4000 294° West 270 311 7,500  Level New York TRACON
07:27PM 40.7458 -74.6540 277° West  Level FlightAware Approximate
07:27PM 40.7000 -74.4833 285° West 287 330 9,700  Level New York TRACON
07:28PM 40.7563 -74.7807 276° West  Level FlightAware Approximate
07:29PM 40.7660 -74.9075 276° West  Level FlightAware Approximate
07:29PM 40.7447 -74.6825 287° West 358 412 12,100  Level New York Center
07:30PM 40.7628 -74.8258 279° West 358 412 13,900 1,680 Climbing New York Center
07:31PM 40.7797 -74.9419 281° West 358 412 15,500 1,500 Climbing New York Center
07:32PM 40.7994 -75.0886 280° West 363 418 16,900 1,200 Climbing New York Center
07:33PM 40.7903 -75.2222 265° West 368 423 17,900 1,140 Climbing New York Center
07:34PM 40.7708 -75.3444 258° West 368 423 19,200 1,140 Climbing New York Center
07:35PM 40.7300 -75.4867 249° West 373 429 20,200 960 Climbing New York Center
07:36PM 40.6786 -75.6200 243° Southwest 389 448 21,200 1,740 Climbing New York Center
07:37PM 40.6342 -75.7400 244° Southwest 389 448 23,800 1,980 Climbing New York Center
07:38PM 40.5872 -75.8594 243° Southwest 383 441 25,200 1,440 Climbing New York Center
07:39PM 40.5431 -75.9656 241° Southwest 377 434 26,700 1,380 Climbing New York Center
07:40PM 40.4983 -76.0850 244° Southwest 377 434 28,100 1,440 Climbing New York Center
07:41PM 40.4556 -76.1989 244° Southwest 371 427 29,600 1,380 Climbing New York Center
07:42PM 40.4081 -76.3206 243° Southwest 366 421 30,900 1,080 Climbing New York Center
07:43PM 40.3733 -76.4378 249° West 355 409 31,900 960 Climbing New York Center
07:44PM 40.3425 -76.5606 252° West 355 409 32,900 960 Climbing New York Center
07:45PM 40.3094 -76.6831 251° West 355 409 33,900 1,560 Climbing New York Center
07:46PM 40.2783 -76.8028 251° West 355 409 36,000 900 Climbing New York Center
07:47PM 40.2467 -76.9281 252° West 366 421 35,700  Descending New York Center
07:48PM 40.2175 -77.0503 253° West 361 415 36,000 120 Climbing New York Center
07:49PM 40.2144 -77.1833 268° West 356 410 36,000  Level New York Center
07:50PM 40.2119 -77.3056 269° West 363 418 36,000  Level New York Center
07:52PM 40.1981 -77.6475 267° West 391 450 36,000  Level Cleveland Center
07:53PM 40.1933 -77.7889 268° West 391 450 36,000  Level Cleveland Center
07:54PM 40.1822 -77.9281 264° West 391 450 36,000  Level Cleveland Center
07:55PM 40.1792 -78.0722 268° West 391 450 36,000  Level Cleveland Center
07:56PM 40.1719 -78.2164 266° West 391 450 36,000  Level Cleveland Center
07:57PM 40.1683 -78.3578 268° West 396 456 36,000  Level Cleveland Center
07:58PM 40.1711 -78.4992 272° West 396 456 36,000  Level Cleveland Center
07:59PM 40.1736 -78.6403 271° West 396 456 36,000  Level Cleveland Center
08:00PM 40.1758 -78.7817 271° West 396 456 36,000  Level Cleveland Center
08:01PM 40.1781 -78.9256 271° West 396 456 36,000  Level Cleveland Center
08:02PM 40.1800 -79.0667 271° West 396 456 36,000  Level Cleveland Center
08:03PM 40.1819 -79.2081 271° West 396 456 36,000  Level Cleveland Center
08:04PM 40.1878 -79.3492 273° West 396 456 36,000  Level Cleveland Center
08:05PM 40.1892 -79.4906 271° West 391 450 36,000  Level Cleveland Center
08:06PM 40.1903 -79.6319 271° West 391 450 36,000  Level Cleveland Center
08:07PM 40.1914 -79.7706 271° West 391 450 36,000  Level Cleveland Center
08:08PM 40.1925 -79.9117 271° West 391 450 36,000  Level Cleveland Center
08:09PM 40.1889 -80.0558 268° West 386 444 36,000  Level Cleveland Center
08:10PM 40.1894 -80.1972 270° West 386 444 36,000  Level Cleveland Center
08:11PM 40.1919 -80.3358 271° West 386 444 36,000  Level Cleveland Center
08:12PM 40.1922 -80.4608 270° West 386 444 36,000  Level Cleveland Center
08:13PM 40.1944 -80.6019 271° West 386 444 36,000  Level Cleveland Center
08:14PM 40.1942 -80.7381 270° West 386 444 36,000  Level Cleveland Center
08:15PM 40.1939 -80.8794 270° West 386 444 36,000  Level Cleveland Center
08:16PM 40.1933 -81.0233 270° West 386 444 36,000  Level Cleveland Center
08:17PM 40.1928 -81.1592 270° West 386 444 36,000  Level Cleveland Center
08:19PM 40.1894 -81.4194 269° West 382 440 36,000  Level Indianapolis Center
08:20PM 40.1886 -81.5597 270° West 381 438 36,000  Level Indianapolis Center
08:21PM 40.1867 -81.6997 269° West 381 438 36,000  Level Indianapolis Center
08:22PM 40.1856 -81.8497 269° West 380 437 36,000  Level Indianapolis Center
08:23PM 40.1842 -81.9875 269° West 377 434 36,000  Level Indianapolis Center
08:24PM 40.1831 -82.1267 269° West 379 436 36,000  Level Indianapolis Center
08:25PM 40.1806 -82.2658 269° West 380 437 36,000  Level Indianapolis Center
08:26PM 40.1786 -82.4042 269° West 378 435 36,000  Level Indianapolis Center
08:27PM 40.1761 -82.5419 269° West 376 433 36,000  Level Indianapolis Center
08:28PM 40.1750 -82.6817 269° West 381 438 36,000  Level Indianapolis Center
08:29PM 40.1714 -82.8194 268° West 379 436 36,000  Level Indianapolis Center
08:30PM 40.1692 -82.9575 269° West 377 434 36,000  Level Indianapolis Center
08:31PM 40.1661 -83.1186 269° West 379 436 36,000  Level Indianapolis Center
08:32PM 40.1631 -83.2575 268° West 380 437 36,000  Level Indianapolis Center
08:33PM 40.1600 -83.3950 268° West 378 435 36,000  Level Indianapolis Center
08:34PM 40.1567 -83.5308 268° West 376 433 36,000  Level Indianapolis Center
08:35PM 40.1531 -83.6667 268° West 375 432 36,000  Level Indianapolis Center
08:36PM 40.1494 -83.8028 268° West 375 432 36,000  Level Indianapolis Center
08:37PM 40.1458 -83.9397 268° West 375 432 36,000  Level Indianapolis Center
08:38PM 40.1425 -84.0758 268° West 374 430 36,000  Level Indianapolis Center
08:39PM 40.1369 -84.2356 267° West 376 433 36,000  Level Indianapolis Center
08:40PM 40.1322 -84.3733 267° West 376 433 36,000  Level Indianapolis Center
08:42PM 40.1281 -84.5111 268° West 378 435 36,000  Level Indianapolis Center
08:43PM 40.1233 -84.6494 267° West 380 437 36,000  Level Indianapolis Center
08:44PM 40.1181 -84.7864 267° West 375 432 36,000  Level Indianapolis Center
08:45PM 40.1133 -84.9242 267° West 377 434 36,000  Level Indianapolis Center
08:45PM 40.1114 -84.9692 267° West 375 432 36,000  Level Indianapolis Center
08:46PM 40.1047 -85.1311 267° West 379 436 36,000  Level Indianapolis Center
08:47PM 40.1017 -85.2689 268° West 378 435 36,000  Level Indianapolis Center
08:48PM 40.0931 -85.4083 265° West 381 438 36,000  Level Indianapolis Center
08:49PM 40.0881 -85.5467 267° West 380 437 36,000  Level Indianapolis Center
08:50PM 40.0811 -85.6856 266° West 381 438 36,000  Level Indianapolis Center
08:51PM 40.0764 -85.8244 268° West 379 436 36,000  Level Indianapolis Center
08:52PM 40.0694 -85.9642 266° West 381 438 36,000  Level Indianapolis Center
08:53PM 40.0633 -86.1011 267° West 379 436 36,000  Level Indianapolis Center
08:54PM 40.0611 -86.1389 266° West 379 436 36,000  Level Chicago Center
08:55PM 40.0542 -86.2769 266° West 381 438 36,000  Level Chicago Center
08:55PM 40.0500 -86.3758 267° West 380 437 36,000  Level Indianapolis Center
08:56PM 40.0428 -86.5147 266° West 383 441 36,000  Level Indianapolis Center
08:57PM 40.0361 -86.6519 266° West 379 436 36,000  Level Indianapolis Center
08:58PM 40.0283 -86.7903 266° West 381 438 36,000  Level Indianapolis Center
08:59PM 40.0194 -86.9556 266° West 381 438 36,000  Level Indianapolis Center
09:00PM 40.0122 -87.0947 266° West 383 441 36,000  Level Indianapolis Center
09:01PM 40.0039 -87.2331 266° West 383 441 36,000  Level Indianapolis Center
09:02PM 39.9967 -87.3706 266° West 381 438 36,000  Level Indianapolis Center
09:03PM 39.9883 -87.5092 266° West 383 441 36,000  Level Indianapolis Center
09:04PM 39.9806 -87.6467 266° West 382 440 36,000  Level Indianapolis Center
09:05PM 39.9719 -87.7839 265° West 380 437 36,000  Level Indianapolis Center
09:06PM 39.9636 -87.9233 266° West 383 441 36,000  Level Indianapolis Center
09:07PM 39.9589 -88.0042 266° West 383 441 36,000  Level Chicago Center
09:08PM 39.9478 -88.1692 265° West 382 440 36,000  Level Chicago Center
09:09PM 39.9392 -88.3061 265° West 380 437 36,000  Level Chicago Center
09:10PM 39.9300 -88.4439 265° West 381 438 36,000  Level Chicago Center
09:11PM 39.9256 -88.4986 264° West 381 438 36,000  Level Kansas City Center
09:12PM 39.9142 -88.6614 265° West 376 433 36,000  Level Kansas City Center
09:13PM 39.9047 -88.7975 265° West 377 434 36,000  Level Kansas City Center
09:14PM 39.8956 -88.9350 265° West 379 436 36,000  Level Kansas City Center
09:15PM 39.8850 -89.0694 264° West 375 432 36,000  Level Kansas City Center
09:16PM 39.8753 -89.2064 265° West 377 434 36,000  Level Kansas City Center
09:17PM 39.8647 -89.3419 264° West 376 433 36,000  Level Kansas City Center
09:18PM 39.8542 -89.4781 264° West 377 434 36,000  Level Kansas City Center
09:19PM 39.8436 -89.6133 264° West 376 433 36,000  Level Kansas City Center
09:20PM 39.8400 -89.7511 268° West 378 435 36,000  Level Kansas City Center
09:21PM 39.8417 -89.8897 271° West 381 438 36,000  Level Kansas City Center
09:22PM 39.8436 -90.0561 271° West 382 440 36,000  Level Kansas City Center
09:23PM 39.8444 -90.1942 270° West 381 438 36,000  Level Kansas City Center
09:24PM 39.8456 -90.3297 271° West 378 435 36,000  Level Kansas City Center
09:25PM 39.8458 -90.4647 270° West 374 430 36,000  Level Kansas City Center
09:26PM 39.8472 -90.5978 271° West 370 426 36,000  Level Kansas City Center
09:27PM 39.8472 -90.7308 270° West 367 422 36,000  Level Kansas City Center
09:28PM 39.8483 -90.8639 271° West 368 423 36,000  Level Kansas City Center
09:29PM 39.8481 -90.9931 270° West 365 420 36,000  Level Kansas City Center
09:30PM 39.8481 -91.1508 270° West 365 420 36,000  Level Kansas City Center
09:31PM 39.8478 -91.2794 270° West 362 417 36,000  Level Kansas City Center
09:32PM 39.8386 -91.4083 265° West 360 414 36,000  Level Kansas City Center
09:33PM 39.8292 -91.5389 265° West 362 417 36,000  Level Kansas City Center
09:34PM 39.8183 -91.6681 264° West 362 417 36,000  Level Kansas City Center
09:35PM 39.8094 -91.7986 265° West 363 418 36,000  Level Kansas City Center
09:36PM 39.8006 -91.9275 265° West 363 418 36,000  Level Kansas City Center
09:37PM 39.7875 -92.0850 264° West 364 419 36,000  Level Kansas City Center
09:38PM 39.7767 -92.2153 264° West 364 419 36,000  Level Kansas City Center
09:39PM 39.7658 -92.3456 264° West 364 419 36,000  Level Kansas City Center
09:40PM 39.7558 -92.4747 264° West 361 415 36,000  Level Kansas City Center
09:42PM 39.7447 -92.6028 264° West 361 415 36,000 -660 Level Kansas City Center
09:43PM 39.7339 -92.7306 264° West 356 410 34,700 -1,680 Descending Kansas City Center
09:44PM 39.7231 -92.8542 264° West 351 404 32,700 -1,980 Descending Kansas City Center
09:45PM 39.7114 -92.9850 263° West 359 413 30,700 -2,220 Descending Kansas City Center
09:46PM 39.6967 -93.1464 263° West 373 429 28,200 -2,160 Descending Kansas City Center
09:47PM 39.6847 -93.2867 264° West 386 444 26,300 -1,740 Descending Kansas City Center
09:48PM 39.6728 -93.4267 264° West 392 451 24,700 -1,800 Descending Kansas City Center
09:49PM 39.6586 -93.5611 262° West 385 443 22,700 -1,980 Descending Kansas City Center
09:50PM 39.6467 -93.6928 263° West 371 427 20,700 -2,040 Descending Kansas City Center
09:51PM 39.6353 -93.8242 264° West 366 421 18,600 -2,100 Descending Kansas City Center
09:52PM 39.5936 -93.9489 247° West 340 391 16,400 -2,100 Descending Kansas City Center
09:53PM 39.5444 -94.0456 237° Southwest 335 386 14,400 -1,980 Descending Kansas City Center
09:54PM 39.4894 -94.1544 237° Southwest 324 373 12,400 -1,200 Descending Kansas City Center
09:55PM 39.4442 -94.2444 237° Southwest 313 360 12,000 -720 Descending Kansas City Center
09:56PM 39.3978 -94.3350 236° Southwest 315 362 11,000 -960 Descending Kansas City Center
09:57PM 39.3494 -94.4306 237° Southwest 272 313 10,100 -1,140 Descending Kansas City Center
09:58PM 39.3153 -94.4964 236° Southwest 235 270 8,700 -1,560 Descending Kansas City Center
09:59PM 39.2731 -94.5783 236° Southwest 244 281 7,000 -1,380 Descending Kansas City Center
10:00PM 39.2197 -94.6208 212° Southwest 236 272 5,900 -960 Descending Kansas City Center
10:01PM 39.1661 -94.6656 213° Southwest 248 285 5,100 -1,140 Descending Kansas City Center
10:02PM 39.1631 -94.7503 267° West 235 270 3,600 -1,500 Descending Kansas City Center